createdAt,value
2022-12-11T00:00:25.815Z,96126.19
2022-12-11T00:02:53.202Z,96113.94
2022-12-11T00:05:19.900Z,96125.22
2022-12-11T00:07:46.625Z,96112.81
2022-12-11T00:10:13.283Z,96128.69
2022-12-11T00:12:39.931Z,96131.72
2022-12-11T00:15:07.220Z,96124.50
2022-12-11T00:17:34.062Z,96110.63
2022-12-11T00:20:00.664Z,96104.69
2022-12-11T00:22:27.270Z,96110.47
2022-12-11T00:24:53.947Z,96101.28
2022-12-11T00:27:20.518Z,96076.88
2022-12-11T00:29:47.061Z,96107.66
2022-12-11T00:32:13.656Z,96101.94
2022-12-11T00:34:40.382Z,96109.09
2022-12-11T00:37:07.080Z,96077.91
2022-12-11T00:39:33.751Z,96111.25
2022-12-11T00:42:00.723Z,96077.38
2022-12-11T00:44:27.273Z,96096.91
2022-12-11T00:46:53.826Z,96092.53
2022-12-11T00:49:20.544Z,96090.16
2022-12-11T00:51:47.109Z,96087.69
2022-12-11T00:54:14.627Z,96088.50
2022-12-11T00:56:41.210Z,96091.25
2022-12-11T00:59:07.982Z,96093.63
2022-12-11T01:01:35.015Z,96090.44
2022-12-11T01:04:01.695Z,96078.81
2022-12-11T01:06:28.720Z,96082.50
2022-12-11T01:09:14.965Z,96095.72
2022-12-11T01:11:42.929Z,96086.41
2022-12-11T01:14:10.882Z,96082.34
2022-12-11T01:16:37.691Z,96082.84
2022-12-11T01:19:04.455Z,96092.84
2022-12-11T01:21:31.202Z,96066.59
2022-12-11T01:23:57.875Z,96087.69
2022-12-11T01:26:24.539Z,96101.56
2022-12-11T01:28:51.874Z,96103.66
2022-12-11T01:31:20.029Z,96098.03
2022-12-11T01:33:46.668Z,96100.41
2022-12-11T01:36:19.497Z,96092.09
2022-12-11T01:38:47.954Z,96072.09
2022-12-11T01:41:15.536Z,96082.84
2022-12-11T01:43:59.917Z,96071.84
2022-12-11T01:46:27.759Z,96060.75
2022-12-11T01:48:55.966Z,96072.59
2022-12-11T01:51:24.032Z,96059.78
2022-12-11T01:54:00.855Z,96065.44
2022-12-11T01:56:31.725Z,96062.38
2022-12-11T01:59:06.831Z,96063.44
2022-12-11T02:02:09.164Z,96072.97
2022-12-11T02:04:38.586Z,96078.88
2022-12-11T02:07:05.847Z,96072.19
2022-12-11T02:09:35.107Z,96033.03
2022-12-11T02:12:07.704Z,96067.91
2022-12-11T02:14:49.484Z,96074.56
2022-12-11T02:17:26.144Z,96064.66
2022-12-11T02:20:15.013Z,96063.16
2022-12-11T02:23:12.193Z,96066.13
2022-12-11T02:25:57.838Z,96075.72
2022-12-11T02:28:27.356Z,96078.88
2022-12-11T02:31:10.492Z,96068.34
2022-12-11T02:33:45.749Z,96079.91
2022-12-11T02:36:18.279Z,96049.06
2022-12-11T02:38:50.751Z,96065.44
2022-12-11T02:41:19.916Z,96065.44
2022-12-11T02:43:48.215Z,96048.50
2022-12-11T02:46:17.853Z,96062.59
2022-12-11T02:48:47.379Z,96046.22
2022-12-11T02:51:16.496Z,96001.81
2022-12-11T02:53:44.758Z,96044.28
2022-12-11T02:56:16.667Z,96049.47
2022-12-11T02:58:50.685Z,96027.75
2022-12-11T03:01:20.620Z,96018.22
2022-12-11T03:03:47.796Z,96009.25
2022-12-11T03:06:18.388Z,96043.00
2022-12-11T03:08:44.877Z,96041.31
2022-12-11T03:11:12.521Z,96034.84
2022-12-11T03:13:42.592Z,96039.88
2022-12-11T03:16:17.962Z,96047.25
2022-12-11T03:18:53.736Z,96024.06
2022-12-11T03:21:30.266Z,96026.09
2022-12-11T03:24:14.703Z,96023.41
2022-12-11T03:26:54.469Z,96012.38
2022-12-11T03:29:31.811Z,96045.59
2022-12-11T03:32:04.614Z,96053.97
2022-12-11T03:34:36.851Z,96008.84
2022-12-11T03:37:05.653Z,96040.59
2022-12-11T03:39:37.822Z,96024.56
2022-12-11T03:42:09.691Z,96032.94
2022-12-11T03:44:36.923Z,96019.06
2022-12-11T03:47:07.371Z,95985.66
2022-12-11T03:49:37.616Z,96013.63
2022-12-11T03:52:06.287Z,96015.91
2022-12-11T03:54:34.963Z,96004.34
2022-12-11T03:57:04.338Z,95991.38
2022-12-11T03:59:31.490Z,96003.47
2022-12-11T04:01:58.395Z,96003.41
2022-12-11T04:04:25.499Z,95989.59
2022-12-11T04:06:52.221Z,95996.94
2022-12-11T04:09:18.887Z,96003.03
2022-12-11T04:11:45.639Z,96001.81
2022-12-11T04:14:32.998Z,96000.38
2022-12-11T04:17:00.810Z,95998.38
2022-12-11T04:19:46.585Z,95996.72
2022-12-11T04:22:34.536Z,95999.00
2022-12-11T04:25:02.425Z,96005.84
2022-12-11T04:27:49.182Z,95979.84
2022-12-11T04:30:23.444Z,96007.59
2022-12-11T04:32:50.544Z,96002.25
2022-12-11T04:35:17.755Z,95989.16
2022-12-11T04:37:44.518Z,95987.88
2022-12-11T04:40:14.222Z,95973.59
2022-12-11T04:42:41.380Z,95991.06
2022-12-11T04:45:09.725Z,95998.06
2022-12-11T04:47:38.869Z,95989.06
2022-12-11T04:50:09.150Z,95959.97
2022-12-11T04:52:35.826Z,96000.22
2022-12-11T04:55:04.993Z,95998.06
2022-12-11T04:57:31.642Z,95989.84
2022-12-11T04:59:58.216Z,95993.16
2022-12-11T05:02:24.891Z,95983.44
2022-12-11T05:04:51.479Z,95993.09
2022-12-11T05:07:18.224Z,95986.16
2022-12-11T05:09:44.775Z,95980.97
2022-12-11T05:12:11.408Z,95991.06
2022-12-11T05:14:38.088Z,95984.22
2022-12-11T05:17:04.630Z,95982.06
2022-12-11T05:19:31.366Z,95969.53
2022-12-11T05:21:57.905Z,95979.09
2022-12-11T05:24:24.486Z,95984.06
2022-12-11T05:26:51.158Z,95974.31
2022-12-11T05:29:17.696Z,95980.47
2022-12-11T05:31:44.337Z,95967.69
2022-12-11T05:34:11.142Z,95972.53
2022-12-11T05:36:37.768Z,95970.88
2022-12-11T05:39:05.001Z,95970.78
2022-12-11T05:41:32.896Z,95971.38
2022-12-11T05:44:00.217Z,95950.63
2022-12-11T05:46:29.992Z,95962.19
2022-12-11T05:49:01.984Z,95959.38
2022-12-11T05:51:29.796Z,95966.97
2022-12-11T05:53:57.804Z,95965.28
2022-12-11T05:56:30.586Z,95963.38
2022-12-11T05:58:58.250Z,95942.84
2022-12-11T06:01:27.952Z,95951.38
2022-12-11T06:03:55.954Z,95964.00
2022-12-11T06:06:24.050Z,95963.06
2022-12-11T06:08:51.916Z,95963.84
2022-12-11T06:11:23.790Z,95938.31
2022-12-11T06:13:51.894Z,95965.72
2022-12-11T06:16:19.434Z,95952.00
2022-12-11T06:18:46.384Z,95942.19
2022-12-11T06:21:25.982Z,95947.19
2022-12-11T06:23:54.816Z,95919.41
2022-12-11T06:26:22.068Z,95937.13
2022-12-11T06:28:49.529Z,95929.63
2022-12-11T06:31:17.847Z,95922.63
2022-12-11T06:33:45.040Z,95956.78
2022-12-11T06:36:17.616Z,95957.56
2022-12-11T06:38:44.929Z,95965.00
2022-12-11T06:41:12.195Z,95964.81
2022-12-11T06:43:40.389Z,95940.13
2022-12-11T06:46:09.974Z,95975.34
2022-12-11T06:48:38.081Z,95933.97
2022-12-11T06:51:09.841Z,95975.09
2022-12-11T06:53:36.891Z,95964.78
2022-12-11T06:56:05.573Z,95983.25
2022-12-11T06:58:34.582Z,95974.75
2022-12-11T07:01:03.268Z,95993.69
2022-12-11T07:03:29.975Z,95969.41
2022-12-11T07:06:02.930Z,95982.28
2022-12-11T07:08:32.086Z,95981.19
2022-12-11T07:11:12.704Z,95966.59
2022-12-11T07:13:39.292Z,95975.34
2022-12-11T07:16:10.952Z,95961.25
2022-12-11T07:18:39.362Z,95969.19
2022-12-11T07:21:07.617Z,95975.19
2022-12-11T07:23:35.291Z,95956.50
2022-12-11T07:26:09.159Z,95987.31
2022-12-11T07:28:36.264Z,95991.13
2022-12-11T07:31:11.224Z,95991.03
2022-12-11T07:33:37.846Z,95983.91
2022-12-11T07:36:06.991Z,95999.06
2022-12-11T07:38:34.143Z,95967.56
2022-12-11T07:41:02.206Z,95993.47
2022-12-11T07:43:28.944Z,95978.06
2022-12-11T07:45:55.754Z,95987.28
2022-12-11T07:48:22.381Z,95962.44
2022-12-11T07:50:49.059Z,96003.22
2022-12-11T07:53:15.619Z,95966.28
2022-12-11T07:55:42.279Z,95996.63
2022-12-11T07:58:08.885Z,95987.25
2022-12-11T08:00:35.475Z,95965.09
2022-12-11T08:03:02.120Z,95955.78
2022-12-11T08:05:29.036Z,95997.38
2022-12-11T08:07:55.833Z,95988.03
2022-12-11T08:10:23.050Z,95949.88
2022-12-11T08:12:49.607Z,95986.47
2022-12-11T08:15:16.159Z,95942.56
2022-12-11T08:17:42.701Z,95966.66
2022-12-11T08:20:09.891Z,95983.06
2022-12-11T08:22:36.480Z,96000.81
2022-12-11T08:25:03.299Z,95993.03
2022-12-11T08:27:29.991Z,95979.44
2022-12-11T08:29:56.574Z,95984.16
2022-12-11T08:32:23.151Z,95984.00
2022-12-11T08:34:51.734Z,95973.88
2022-12-11T08:37:18.400Z,95991.50
2022-12-11T08:39:47.124Z,95984.63
2022-12-11T08:42:13.758Z,95979.09
2022-12-11T08:44:40.382Z,95974.50
2022-12-11T08:47:09.950Z,95981.88
2022-12-11T08:49:36.936Z,95992.59
2022-12-11T08:52:06.877Z,95976.69
2022-12-11T08:54:33.603Z,95991.25
2022-12-11T08:57:00.311Z,95953.72
2022-12-11T08:59:26.851Z,95978.59
2022-12-11T09:01:55.538Z,95977.69
2022-12-11T09:04:23.248Z,95973.50
2022-12-11T09:06:50.218Z,95984.19
2022-12-11T09:09:17.109Z,95977.25
2022-12-11T09:11:43.925Z,95978.00
2022-12-11T09:14:10.613Z,95982.34
2022-12-11T09:16:40.735Z,95989.34
2022-12-11T09:19:11.163Z,95976.78
2022-12-11T09:21:37.819Z,95964.06
2022-12-11T09:24:04.822Z,95972.28
2022-12-11T09:26:32.994Z,95988.25
2022-12-11T09:28:59.674Z,95945.53
2022-12-11T09:31:29.331Z,95974.00
2022-12-11T09:33:58.422Z,95981.75
2022-12-11T09:36:25.929Z,95986.66
2022-12-11T09:38:52.639Z,95973.31
2022-12-11T09:41:22.155Z,95992.03
2022-12-11T09:43:51.635Z,95978.53
2022-12-11T09:46:20.755Z,95968.47
2022-12-11T09:48:50.157Z,95963.13
2022-12-11T09:51:39.896Z,95970.56
2022-12-11T09:54:06.740Z,95966.97
2022-12-11T09:56:42.543Z,95957.22
2022-12-11T09:59:35.039Z,95958.09
2022-12-11T10:02:26.327Z,95952.88
2022-12-11T10:04:59.250Z,95938.44
2022-12-11T10:07:57.104Z,95929.13
2022-12-11T10:10:51.711Z,95929.75
2022-12-11T10:13:33.388Z,95967.00
2022-12-11T10:16:23.009Z,95939.69
2022-12-11T10:18:50.417Z,95957.09
2022-12-11T10:21:18.750Z,95941.41
2022-12-11T10:23:56.744Z,95960.97
2022-12-11T10:26:23.912Z,95966.09
2022-12-11T10:28:50.796Z,95946.59
2022-12-11T10:31:29.314Z,95945.72
2022-12-11T10:34:03.200Z,95955.34
2022-12-11T10:36:34.343Z,95942.53
2022-12-11T10:39:01.723Z,95946.44
2022-12-11T10:41:39.847Z,95945.63
2022-12-11T10:44:20.385Z,95939.84
2022-12-11T10:46:48.090Z,95953.94
2022-12-11T10:49:24.261Z,95927.09
2022-12-11T10:51:52.632Z,95938.31
2022-12-11T10:54:35.727Z,95944.59
2022-12-11T10:57:03.892Z,95942.75
2022-12-11T10:59:44.139Z,95944.09
2022-12-11T11:02:26.064Z,95941.28
2022-12-11T11:04:55.274Z,95923.94
2022-12-11T11:07:25.698Z,95945.06
2022-12-11T11:10:03.931Z,95936.91
2022-12-11T11:12:30.665Z,95923.03
2022-12-11T11:15:07.090Z,95929.91
2022-12-11T11:17:51.291Z,95923.63
2022-12-11T11:20:25.370Z,95931.16
2022-12-11T11:22:54.069Z,95923.78
2022-12-11T11:25:23.445Z,95929.13
2022-12-11T11:27:59.387Z,95919.03
2022-12-11T11:30:25.895Z,95918.66
2022-12-11T11:32:56.735Z,95911.66
2022-12-11T11:35:27.141Z,95867.44
2022-12-11T11:38:00.694Z,95916.25
2022-12-11T11:40:31.081Z,95905.78
2022-12-11T11:43:43.833Z,95909.47
2022-12-11T11:46:14.491Z,95911.66
2022-12-11T11:49:07.603Z,95904.94
2022-12-11T11:51:38.926Z,95899.22
2022-12-11T11:54:30.412Z,95900.09
2022-12-11T11:57:00.827Z,95857.47
2022-12-11T11:59:33.715Z,95903.78
2022-12-11T12:02:13.929Z,95899.94
2022-12-11T12:04:42.239Z,95881.97
2022-12-11T12:07:31.100Z,95901.88
2022-12-11T12:10:36.908Z,95904.25
2022-12-11T12:13:30.203Z,95918.81
2022-12-11T12:15:59.634Z,95918.59
2022-12-11T12:18:58.104Z,95914.13
2022-12-11T12:21:35.122Z,95916.09
2022-12-11T12:24:23.560Z,95913.22
2022-12-11T12:26:57.430Z,95873.63
2022-12-11T12:29:44.302Z,95907.44
2022-12-11T12:32:29.093Z,95907.81
2022-12-11T12:34:59.628Z,95911.56
2022-12-11T12:37:47.819Z,95907.41
2022-12-11T12:40:31.958Z,95893.09
2022-12-11T12:43:17.200Z,95907.91
2022-12-11T12:45:59.247Z,95907.06
2022-12-11T12:48:28.211Z,95810.88
2022-12-11T12:50:56.954Z,95878.56
2022-12-11T12:53:28.755Z,95884.47
2022-12-11T12:55:59.067Z,95884.31
2022-12-11T12:58:25.609Z,95919.84
2022-12-11T13:00:52.631Z,95892.53
2022-12-11T13:03:35.819Z,95902.34
2022-12-11T13:06:07.816Z,95906.34
2022-12-11T13:08:42.754Z,95917.44
2022-12-11T13:11:12.487Z,95923.28
2022-12-11T13:13:42.247Z,95933.41
2022-12-11T13:16:17.997Z,95925.19
2022-12-11T13:18:49.887Z,95923.13
2022-12-11T13:21:28.651Z,95945.78
2022-12-11T13:24:12.704Z,95939.44
2022-12-11T13:26:40.107Z,95938.38
2022-12-11T13:29:06.978Z,95908.44
2022-12-11T13:31:36.495Z,95947.22
2022-12-11T13:34:20.718Z,95949.88
2022-12-11T13:36:52.630Z,95932.88
2022-12-11T13:39:27.631Z,95952.13
2022-12-11T13:41:59.592Z,95942.16
2022-12-11T13:44:41.784Z,95947.44
2022-12-11T13:47:14.523Z,95945.97
2022-12-11T13:49:44.472Z,95934.53
2022-12-11T13:52:18.881Z,95945.16
2022-12-11T13:54:51.599Z,95952.56
2022-12-11T13:57:21.542Z,95962.44
2022-12-11T13:59:53.026Z,95958.50
2022-12-11T14:02:26.602Z,95964.78
2022-12-11T14:04:58.227Z,95961.03
2022-12-11T14:07:32.321Z,95958.94
2022-12-11T14:10:33.523Z,95969.94
2022-12-11T14:13:04.820Z,95965.97
2022-12-11T14:15:37.900Z,95945.16
2022-12-11T14:18:05.571Z,95955.63
2022-12-11T14:20:34.119Z,95977.41
2022-12-11T14:23:25.967Z,95976.34
2022-12-11T14:25:58.791Z,95968.53
2022-12-11T14:28:27.907Z,95960.63
2022-12-11T14:30:59.759Z,95993.00
2022-12-11T14:33:32.773Z,95950.00
2022-12-11T14:36:01.354Z,95937.00
2022-12-11T14:38:43.041Z,95973.41
2022-12-11T14:41:23.741Z,95958.81
2022-12-11T14:43:57.518Z,95980.25
2022-12-11T14:46:32.799Z,95973.97
2022-12-11T14:49:03.756Z,95940.56
2022-12-11T14:51:38.721Z,95972.41
2022-12-11T14:54:06.716Z,95961.72
2022-12-11T14:56:34.146Z,95964.34
2022-12-11T14:59:06.868Z,95980.19
2022-12-11T15:01:36.648Z,95982.56
2022-12-11T15:04:22.724Z,95970.03
2022-12-11T15:06:51.856Z,95980.06
2022-12-11T15:09:27.802Z,95948.78
2022-12-11T15:11:59.962Z,95961.41
2022-12-11T15:14:27.355Z,95970.22
2022-12-11T15:16:57.328Z,95948.84
2022-12-11T15:19:32.080Z,95944.63
2022-12-11T15:22:04.691Z,95967.97
2022-12-11T15:24:42.958Z,95993.50
2022-12-11T15:27:33.537Z,95990.66
2022-12-11T15:30:00.250Z,95965.22
2022-12-11T15:32:33.703Z,95992.81
2022-12-11T15:35:00.635Z,95997.28
2022-12-11T15:37:33.094Z,95996.31
2022-12-11T15:40:02.186Z,96001.09
2022-12-11T15:42:36.079Z,95977.66
2022-12-11T15:45:06.115Z,95980.56
2022-12-11T15:47:32.998Z,96000.25
2022-12-11T15:50:15.612Z,96002.16
2022-12-11T15:52:42.649Z,95994.94
2022-12-11T15:55:09.897Z,96000.03
2022-12-11T15:57:37.245Z,96016.28
2022-12-11T16:00:06.656Z,96008.56
2022-12-11T16:02:33.945Z,96003.78
2022-12-11T16:05:00.605Z,96002.69
2022-12-11T16:07:27.221Z,96004.34
2022-12-11T16:09:53.948Z,95984.22
2022-12-11T16:12:20.780Z,96020.56
2022-12-11T16:14:47.458Z,96027.16
2022-12-11T16:17:15.225Z,96023.19
2022-12-11T16:19:43.446Z,96038.97
2022-12-11T16:22:12.320Z,96037.38
2022-12-11T16:24:39.907Z,96036.81
2022-12-11T16:27:07.910Z,96022.41
2022-12-11T16:29:36.734Z,96000.56
2022-12-11T16:32:04.584Z,96022.81
2022-12-11T16:34:31.108Z,96030.47
2022-12-11T16:36:58.803Z,96008.38
2022-12-11T16:39:26.109Z,96017.41
2022-12-11T16:41:52.790Z,96016.44
2022-12-11T16:44:21.168Z,96015.22
2022-12-11T16:46:48.305Z,96007.75
2022-12-11T16:49:15.946Z,96030.66
2022-12-11T16:51:43.006Z,96040.69
2022-12-11T16:54:11.748Z,96045.25
2022-12-11T16:56:39.027Z,96039.91
2022-12-11T16:59:06.366Z,96040.25
2022-12-11T17:01:33.825Z,96041.56
2022-12-11T17:04:00.656Z,96033.88
2022-12-11T17:06:27.640Z,96021.63
2022-12-11T17:08:54.286Z,95995.97
2022-12-11T17:11:24.935Z,96034.91
2022-12-11T17:13:55.835Z,96025.66
2022-12-11T17:16:24.927Z,96008.63
2022-12-11T17:18:52.465Z,96035.75
2022-12-11T17:21:20.863Z,96037.13
2022-12-11T17:23:47.625Z,96023.56
2022-12-11T17:26:16.843Z,96034.50
2022-12-11T17:28:43.658Z,96033.75
2022-12-11T17:31:16.016Z,96031.88
2022-12-11T17:33:46.595Z,96015.97
2022-12-11T17:36:20.722Z,96024.94
2022-12-11T17:38:48.425Z,96006.41
2022-12-11T17:41:20.512Z,96029.22
2022-12-11T17:43:53.079Z,96031.09
2022-12-11T17:46:21.054Z,96030.03
2022-12-11T17:48:48.743Z,96016.81
2022-12-11T17:51:21.241Z,96037.25
2022-12-11T17:53:53.661Z,96001.72
2022-12-11T17:56:20.617Z,96031.97
2022-12-11T17:58:47.290Z,96026.41
2022-12-11T18:01:14.042Z,96014.16
2022-12-11T18:03:41.645Z,96035.09
2022-12-11T18:06:12.767Z,96036.69
2022-12-11T18:08:39.880Z,96036.44
2022-12-11T18:11:08.757Z,96043.34
2022-12-11T18:13:43.371Z,96024.16
2022-12-11T18:16:17.466Z,95945.47
2022-12-11T18:18:45.900Z,96035.88
2022-12-11T18:21:18.404Z,96052.94
2022-12-11T18:23:45.620Z,96022.19
2022-12-11T18:26:16.200Z,95976.09
2022-12-11T18:28:43.761Z,96047.06
2022-12-11T18:31:11.422Z,96044.97
2022-12-11T18:33:39.442Z,96043.66
2022-12-11T18:36:06.625Z,96046.03
2022-12-11T18:38:34.782Z,96032.28
2022-12-11T18:41:07.934Z,96044.19
2022-12-11T18:46:52.933Z,96038.06
2022-12-11T18:49:22.095Z,96042.88
2022-12-11T18:51:48.827Z,96045.53
2022-12-11T18:54:25.883Z,96041.03
2022-12-11T18:56:53.517Z,95993.81
2022-12-11T18:59:26.706Z,95984.63
2022-12-11T19:01:53.556Z,96036.78
2022-12-11T19:04:20.497Z,96024.81
2022-12-11T19:06:48.223Z,96026.94
2022-12-11T19:09:15.147Z,95998.59
2022-12-11T19:11:48.279Z,96010.50
2022-12-11T19:14:22.143Z,96010.00
2022-12-11T19:16:50.917Z,96031.72
2022-12-11T19:19:20.856Z,95991.59
2022-12-11T19:21:49.145Z,95998.78
2022-12-11T19:24:23.524Z,96021.81
2022-12-11T19:26:51.651Z,96016.53
2022-12-11T19:29:25.493Z,96028.25
2022-12-11T19:31:58.190Z,96008.94
2022-12-11T19:34:25.443Z,95996.19
2022-12-11T19:36:53.797Z,96001.47
2022-12-11T19:39:20.547Z,96013.88
2022-12-11T19:41:49.061Z,96028.00
2022-12-11T19:44:16.830Z,96011.53
2022-12-11T19:46:43.507Z,95978.69
2022-12-11T19:49:11.647Z,96036.25
2022-12-11T19:51:40.370Z,96031.44
2022-12-11T19:54:10.192Z,95996.94
2022-12-11T19:56:41.373Z,96013.69
2022-12-11T19:59:11.949Z,96040.25
2022-12-11T20:01:38.886Z,96000.66
2022-12-11T20:04:10.823Z,96004.88
2022-12-11T20:06:43.001Z,96028.44
2022-12-11T20:09:12.192Z,95979.56
2022-12-11T20:11:41.295Z,96027.28
2022-12-11T20:14:09.689Z,96030.53
2022-12-11T20:17:09.110Z,96012.50
2022-12-11T20:19:29.993Z,96022.03
2022-12-11T20:21:59.599Z,96012.00
2022-12-11T20:24:26.567Z,96003.00
2022-12-11T20:27:02.495Z,96020.25
2022-12-11T20:29:32.343Z,96007.00
2022-12-11T20:32:01.468Z,95936.22
2022-12-11T20:34:28.190Z,95941.88
2022-12-11T20:36:56.924Z,96022.34
2022-12-11T20:39:41.660Z,96045.19
2022-12-11T20:42:09.799Z,96017.59
2022-12-11T20:44:44.166Z,95962.16
2022-12-11T20:47:15.772Z,96051.34
2022-12-11T20:49:42.475Z,95994.03
2022-12-11T20:52:10.064Z,96007.31
2022-12-11T20:54:41.903Z,96009.44
2022-12-11T20:57:09.107Z,96010.75
2022-12-11T20:59:36.914Z,96020.31
2022-12-11T21:02:05.687Z,95985.00
2022-12-11T21:04:38.043Z,96033.06
2022-12-11T21:07:05.808Z,95995.97
2022-12-11T21:09:32.362Z,96019.25
2022-12-11T21:12:01.254Z,96034.94
2022-12-11T21:14:28.685Z,95998.31
2022-12-11T21:16:55.845Z,96003.06
2022-12-11T21:19:25.903Z,96013.41
2022-12-11T21:21:52.958Z,96003.59
2022-12-11T21:24:26.649Z,96032.25
2022-12-11T21:26:56.287Z,96034.44
2022-12-11T21:29:26.873Z,96011.34
2022-12-11T21:32:02.394Z,96033.09
2022-12-11T21:34:33.691Z,96017.13
2022-12-11T21:37:01.412Z,95946.09
2022-12-11T21:39:28.851Z,95918.75
2022-12-11T21:41:55.733Z,95997.25
2022-12-11T21:47:09.060Z,96040.00
2022-12-11T21:49:35.678Z,96032.25
2022-12-11T21:52:03.273Z,96016.06
2022-12-11T21:54:30.033Z,95965.16
2022-12-11T21:56:57.031Z,96011.06
2022-12-11T21:59:23.558Z,96013.47
2022-12-11T22:01:50.550Z,96046.38
2022-12-11T22:04:17.606Z,96018.78
2022-12-11T22:06:47.056Z,96041.31
2022-12-11T22:09:15.844Z,96049.59
2022-12-11T22:11:42.969Z,96038.94
2022-12-11T22:14:12.789Z,96015.34
2022-12-11T22:16:42.028Z,96033.09
2022-12-11T22:19:09.653Z,96040.53
2022-12-11T22:21:36.628Z,96018.75
2022-12-11T22:24:09.061Z,96004.44
2022-12-11T22:26:35.868Z,96026.72
2022-12-11T22:29:02.521Z,95972.63
2022-12-11T22:32:08.152Z,96050.06
2022-12-11T22:34:40.665Z,95942.84
2022-12-11T22:38:56.004Z,95970.44
2022-12-11T22:40:53.696Z,96040.00
2022-12-11T22:43:20.616Z,95889.81
2022-12-11T22:45:50.426Z,96036.50
2022-12-11T22:48:18.463Z,96031.47
2022-12-11T22:50:45.072Z,96024.59
2022-12-11T22:53:11.794Z,96007.31
2022-12-11T22:55:40.050Z,95988.22
2022-12-11T22:58:07.108Z,96026.16
2022-12-11T23:00:34.165Z,96025.88
2022-12-11T23:03:02.184Z,96024.03
2022-12-11T23:05:29.326Z,96014.53
2022-12-11T23:07:56.034Z,96013.41
2022-12-11T23:10:22.839Z,96021.94
2022-12-11T23:12:50.730Z,96006.53
2022-12-11T23:15:18.773Z,96026.72
2022-12-11T23:17:45.641Z,95987.19
2022-12-11T23:20:12.591Z,96013.97
2022-12-11T23:22:39.199Z,95994.09
2022-12-11T23:25:06.263Z,96015.06
2022-12-11T23:27:33.227Z,96030.47
2022-12-11T23:29:59.930Z,96007.63
2022-12-11T23:32:26.618Z,96021.16
2022-12-11T23:34:54.221Z,96025.94
2022-12-11T23:37:21.208Z,96018.72
2022-12-11T23:39:47.937Z,96042.38
2022-12-11T23:42:15.696Z,96004.94
2022-12-11T23:44:43.467Z,96019.25
2022-12-11T23:47:10.172Z,96030.94
2022-12-11T23:49:36.794Z,96022.16
2022-12-11T23:52:03.417Z,96023.50
2022-12-11T23:54:30.033Z,96007.84
2022-12-11T23:56:56.654Z,96018.72
2022-12-11T23:59:23.459Z,95993.75
